Caputa, SD (57725)

12:06 PM MDT on April 24, 2017 (GMT -0600)
ME3545 | | Change Station

Elev 2866 ft 44.09 °N, 102.83 °W | Updated 58 minutes ago

Partly Cloudy
Partly Cloudy
50.0 °F
Feels Like 46 °F
N
10.0
Wind Variable Wind from NNW
Gusts 18.0 mph

Today
High -- | Low -- °F
--% Chance of Precip.
Yesterday
High -- | Low -- °F
Precip. -- in
Pressure 29.61 in
Visibility 10.0 miles
Clouds Scattered Clouds 2600 ft
Windchill 46 °F
Dew Point 43 °F
Humidity 77%
Rainfall 0.01 in
Snow Depth Not available.
5:52 AM 7:46 PM
Waning Crescent, 4% visible
METAR KRAP 241752Z 35018G23KT 10SM SCT026 14/06 A2961 RMK AO2 SLP025 T01390061 10139 20028 58003
Pressure 29.61 in
Visibility 10.0 miles
Clouds Scattered Clouds 2600 ft
Windchill 46 °F
Dew Point 43 °F
Humidity 77%
Rainfall 0.01 in
Snow Depth Not available.
5:52 AM 7:46 PM
Waning Crescent, 4% visible
METAR KRAP 241752Z 35018G23KT 10SM SCT026 14/06 A2961 RMK AO2 SLP025 T01390061 10139 20028 58003

Get Severe Weather Alerts

Thanks for signing up!

Be on the lookout for a verification email in your inbox.

You'll start receiving the daily forecast at 8 AM.

×

10-Day Weather Forecast

Almanac

Astronomy

Apr. 24, 2017 Rise Set
Actual Time
Civil Twilight
Nautical Twilight
Astronomical Twilight
Moon
Length of Visible Light
Length of Day
Tomorrow will be .
, % of the Moon is Illuminated

Today's Extremes

State Highs State Lows

Community

WunderPhotos

WunderBlog® & News

Nearby

Air Quality

  Air Quality AQ Index Pollutant
Not available.

Snow Depth

Station Depth Elevation

Earthquake Activity

City Distance Mag. Time & Date
Minimum magnitude displayed is 2.5.

Coastal Water Temperatures

Place Temperature

Stations

Nearby Weather Stations

Station Location Temp. Windchill Dew Point Humidity Wind Precip. Elev Updated Type
                   

Watches & Warnings

There are currently no watches in effect.